LFMV/AVN METAR and TAF weather

Enter ICAO airport designator
Station Type Date Time Source
LFMV METAR 2019/10/15 04:30 UTC NOAA

LFMV 150430Z AUTO 13012KT 090V190 9999 4700 +TSRA FEW019/// BKN041/// BKN082/// ///CB 16/15 Q1009 TEMPO 3000 SHRA BECMG 13015G25KT


Station Type Date Time Source
LFMV Decoded METAR 2019/10/15 04:30 UTC NOAA

Station name not available
Oct 15, 2019 - 12:30 AM EDT / 2019.10.15 0430 UTC
Wind: from the SE (130 degrees) at 14 MPH (12 KT) (direction variable):0
Visibility: greater than 7 mile(s):0
Sky conditions: mostly cloudy
Weather: heavy rain with thunder; Cumulonimbus clouds observed
Temperature: 60 F (16 C)
Dew Point: 59 F (15 C)
Relative Humidity: 93%
Pressure (altimeter): 29.80 in. Hg (1009 hPa)
ob: LFMV 150430Z AUTO 13012KT 090V190 9999 4700 +TSRA FEW019/// BKN041/// BKN082/// ///CB 16/15 Q1009 TEMPO 3000 SHRA BECMG 13015G25KT
cycle: 4

Station Type Date Time Source
LFMV TAF 2019/10/15 03:00 UTC NOAA

TAF LFMV 150200Z 1503/1603 13015G25KT 9999 FEW025CB BKN080
TEMPO 1503/1506 13025G40KT 1500 TSRA BR BKN015CB
TEMPO 1506/1508 3000 SHRA BKN020TCU
BECMG 1508/1509 26010KT NSC
BECMG 1519/1521 VRB04KT

Example: see airport list